Time;durP1;ratioP1;P1;durP2;ratioP2;P2;SDS_P1;SDS_P2;PMS_P1;PMS_P2;Temp;Humidity;BMP_temperature;BMP_pressure;BME280_temperature;BME280_humidity;BME280_pressure;Samples;Min_cycle;Max_cycle;Signal;HPM_P1;HPM_P2
2022/01/04 00:01:39;;;;;;;0.30;0.30;;;11.90;64.50;;;;;;4989617;28;20429;-57
2022/01/04 00:04:05;;;;;;;2.63;0.47;;;11.80;64.40;;;;;;4999615;28;20026;-57
2022/01/04 00:06:31;;;;;;;1.10;0.30;;;11.90;64.60;;;;;;4990807;28;20053;-57
2022/01/04 00:09:01;;;;;;;1.65;0.47;;;11.90;64.70;;;;;;4980023;28;20027;-57
2022/01/04 00:14:18;;;;;;;0.52;0.30;;;11.90;64.80;;;;;;4979091;28;20038;-58
2022/01/04 00:16:44;;;;;;;1.25;0.40;;;11.90;64.60;;;;;;4978471;28;20483;-59
2022/01/04 00:19:11;;;;;;;1.35;0.30;;;11.90;64.60;;;;;;4979854;28;20390;-57
2022/01/04 00:21:38;;;;;;;3.22;0.32;;;12.00;64.40;;;;;;4981495;28;20034;-56
2022/01/04 00:24:05;;;;;;;1.23;0.40;;;12.00;64.10;;;;;;4983002;28;20502;-57
2022/01/04 00:26:31;;;;;;;0.38;0.30;;;12.00;63.90;;;;;;4978579;28;20612;-57
2022/01/04 00:28:57;;;;;;;2.63;0.40;;;12.00;63.90;;;;;;4980506;28;20549;-58
2022/01/04 00:31:24;;;;;;;0.85;0.50;;;12.00;63.80;;;;;;4979087;28;20390;-58
2022/01/04 00:33:50;;;;;;;0.90;0.60;;;12.00;63.70;;;;;;4980054;28;20031;-56
2022/01/04 00:36:17;;;;;;;2.47;0.50;;;12.00;63.60;;;;;;4981600;28;20361;-54
2022/01/04 00:38:43;;;;;;;3.75;0.80;;;12.00;63.50;;;;;;4976963;28;20493;-57
2022/01/04 00:41:09;;;;;;;10.73;5.43;;;12.00;63.40;;;;;;4980991;28;20506;-59
2022/01/04 00:43:35;;;;;;;6.68;3.47;;;12.00;63.30;;;;;;4982136;28;20034;-57
2022/01/04 00:46:02;;;;;;;3.78;1.90;;;12.00;63.30;;;;;;4981378;28;20034;-58
2022/01/04 00:50:56;;;;;;;0.93;0.40;;;11.90;63.30;;;;;;4982059;28;20034;-58
2022/01/04 00:53:22;;;;;;;3.00;0.38;;;11.90;63.50;;;;;;4982619;28;20039;-58
2022/01/04 00:55:48;;;;;;;1.15;0.30;;;11.90;63.70;;;;;;4982787;28;20483;-57
2022/01/04 00:58:15;;;;;;;0.60;0.30;;;11.80;63.70;;;;;;4979842;28;20030;-55
2022/01/04 01:00:41;;;;;;;1.00;0.50;;;11.80;63.70;;;;;;4979452;28;20033;-58
2022/01/04 01:03:08;;;;;;;1.90;0.43;;;11.80;63.90;;;;;;4979673;28;20049;-58
2022/01/04 01:05:34;;;;;;;1.08;0.32;;;11.70;63.90;;;;;;4981460;28;20494;-58
2022/01/04 01:08:01;;;;;;;0.80;0.47;;;11.70;64.10;;;;;;4989926;28;20073;-59
2022/01/04 01:10:47;;;;;;;0.38;0.20;;;11.70;64.40;;;;;;4992381;28;20326;-56
2022/01/04 01:13:14;;;;;;;1.95;0.35;;;11.70;64.50;;;;;;4992812;28;20037;-59
2022/01/04 01:15:44;;;;;;;1.40;0.30;;;11.70;64.50;;;;;;4994321;28;20095;-58
2022/01/04 01:18:12;;;;;;;0.40;0.20;;;11.70;64.60;;;;;;4991188;28;20045;-57
2022/01/04 01:20:38;;;;;;;2.13;0.40;;;11.70;64.60;;;;;;4991802;28;20026;-58
2022/01/04 01:23:05;;;;;;;1.15;0.40;;;11.70;64.70;;;;;;4997423;28;20049;-57
2022/01/04 01:25:31;;;;;;;0.70;0.32;;;11.70;64.80;;;;;;4993423;28;20517;-58
2022/01/04 01:27:58;;;;;;;2.20;0.38;;;11.70;64.80;;;;;;4987924;28;20466;-55
2022/01/04 01:30:25;;;;;;;0.65;0.20;;;11.70;64.90;;;;;;4992429;28;20049;-59
2022/01/04 01:32:51;;;;;;;0.55;0.28;;;11.70;64.90;;;;;;4991914;28;20045;-59
2022/01/04 01:35:18;;;;;;;1.95;0.25;;;11.80;65.00;;;;;;4990787;28;20077;-57
2022/01/04 01:37:44;;;;;;;0.88;0.43;;;11.70;64.90;;;;;;4989805;28;20029;-58
2022/01/04 01:40:11;;;;;;;0.52;0.20;;;11.70;64.80;;;;;;4993086;28;20036;-58
2022/01/04 01:42:37;;;;;;;0.77;0.38;;;11.80;64.90;;;;;;4993890;28;20498;-59
2022/01/04 01:45:04;;;;;;;0.63;0.30;;;11.70;64.80;;;;;;4981829;28;20038;-57
2022/01/04 01:47:30;;;;;;;1.27;0.50;;;11.80;64.90;;;;;;4984302;28;20408;-55
2022/01/04 01:49:56;;;;;;;1.30;0.50;;;11.80;64.80;;;;;;4983401;28;20046;-58
2022/01/04 01:52:23;;;;;;;1.17;0.40;;;11.80;64.80;;;;;;4993304;28;20022;-57
2022/01/04 01:54:49;;;;;;;1.13;0.40;;;11.80;64.80;;;;;;4998166;28;20026;-56
2022/01/04 01:57:15;;;;;;;0.65;0.50;;;11.70;64.70;;;;;;4987645;28;20028;-57
2022/01/04 01:59:42;;;;;;;1.30;0.40;;;11.80;64.70;;;;;;4990233;28;20030;-59
2022/01/04 02:02:08;;;;;;;1.38;0.43;;;11.80;64.70;;;;;;4985164;28;20499;-59
2022/01/04 02:04:34;;;;;;;0.38;0.38;;;11.80;64.70;;;;;;4998539;28;20340;-59
2022/01/04 02:07:00;;;;;;;2.78;0.50;;;11.80;64.70;;;;;;4979517;28;20053;-57
2022/01/04 02:09:27;;;;;;;0.55;0.20;;;11.70;64.50;;;;;;4980113;28;20041;-58
2022/01/04 02:11:54;;;;;;;1.48;0.40;;;11.70;64.50;;;;;;4975919;28;20046;-57
2022/01/04 02:14:20;;;;;;;1.00;0.50;;;11.70;64.40;;;;;;4980937;28;20038;-58
2022/01/04 02:16:47;;;;;;;6.80;0.70;;;11.70;64.50;;;;;;4978493;28;20038;-58
2022/01/04 02:19:13;;;;;;;0.80;0.52;;;11.70;64.40;;;;;;4976705;28;20033;-57
2022/01/04 02:21:39;;;;;;;0.88;0.55;;;11.70;64.50;;;;;;4979210;28;20042;-59
2022/01/04 02:24:06;;;;;;;1.55;1.15;;;11.60;64.50;;;;;;4980823;28;20034;-56
2022/01/04 02:26:33;;;;;;;1.52;0.85;;;11.70;64.70;;;;;;4981466;28;20493;-56
2022/01/04 02:29:01;;;;;;;0.82;0.60;;;11.70;64.80;;;;;;4976378;28;20037;-58
2022/01/04 02:31:27;;;;;;;1.70;0.75;;;11.60;65.00;;;;;;4977484;28;20046;-56
2022/01/04 02:33:54;;;;;;;0.70;0.45;;;11.60;65.40;;;;;;4978612;28;20306;-53
2022/01/04 02:36:20;;;;;;;1.80;0.60;;;11.60;65.60;;;;;;4981458;28;20030;-56
2022/01/04 02:38:46;;;;;;;1.13;0.50;;;11.70;65.80;;;;;;4977590;28;20023;-55
2022/01/04 02:41:12;;;;;;;1.95;1.05;;;11.80;65.80;;;;;;4980657;28;20046;-55
2022/01/04 02:43:38;;;;;;;0.85;0.50;;;11.80;65.60;;;;;;4981290;28;20030;-57
2022/01/04 02:46:05;;;;;;;1.90;0.50;;;11.80;65.30;;;;;;4979169;28;20040;-57
2022/01/04 02:48:31;;;;;;;1.35;0.55;;;11.90;65.20;;;;;;4963483;28;20083;-57
2022/01/04 02:50:57;;;;;;;1.20;0.65;;;11.90;65.00;;;;;;4978925;28;20057;-57
2022/01/04 02:53:23;;;;;;;1.10;0.52;;;11.90;64.80;;;;;;4981930;28;20402;-58
2022/01/04 02:55:49;;;;;;;1.75;0.68;;;11.90;64.60;;;;;;4980840;28;20475;-57
2022/01/04 02:58:15;;;;;;;0.90;0.60;;;12.00;64.60;;;;;;4977750;28;20423;-58
2022/01/04 03:00:42;;;;;;;1.10;0.57;;;12.00;64.40;;;;;;4981104;28;20026;-57
2022/01/04 03:03:08;;;;;;;1.85;0.50;;;11.90;64.20;;;;;;4970497;28;20042;-57
2022/01/04 03:05:34;;;;;;;1.02;0.47;;;12.00;64.20;;;;;;4963093;28;20042;-56
2022/01/04 03:08:00;;;;;;;1.95;0.50;;;12.00;64.20;;;;;;4978325;28;20031;-59
2022/01/04 03:10:26;;;;;;;3.42;0.60;;;12.00;64.20;;;;;;4978349;28;20046;-56
2022/01/04 03:12:52;;;;;;;0.65;0.40;;;12.00;64.10;;;;;;4978398;28;20027;-56
2022/01/04 03:15:19;;;;;;;2.83;0.50;;;12.00;64.00;;;;;;4975973;28;20038;-59
2022/01/04 03:17:45;;;;;;;0.98;0.50;;;12.00;64.00;;;;;;4978572;28;20026;-57
2022/01/04 03:20:12;;;;;;;1.13;0.50;;;12.00;64.00;;;;;;4979056;28;20061;-57
2022/01/04 03:22:38;;;;;;;0.70;0.55;;;11.90;63.90;;;;;;4977290;28;20493;-57
2022/01/04 03:25:05;;;;;;;2.45;0.60;;;12.00;64.00;;;;;;4980101;28;20472;-59
2022/01/04 03:27:32;;;;;;;0.60;0.50;;;11.90;63.90;;;;;;4978311;28;20050;-59
2022/01/04 03:29:58;;;;;;;1.35;0.40;;;11.90;63.90;;;;;;4969144;28;20491;-57
2022/01/04 03:32:24;;;;;;;0.60;0.30;;;11.90;63.90;;;;;;4977296;28;20452;-58
2022/01/04 03:34:51;;;;;;;0.73;0.40;;;11.90;63.90;;;;;;4979494;28;20486;-55
2022/01/04 03:37:17;;;;;;;1.70;0.47;;;11.90;63.90;;;;;;4977668;28;20116;-59
2022/01/04 03:39:43;;;;;;;0.60;0.40;;;11.90;63.90;;;;;;4979863;28;20042;-57
2022/01/04 03:42:09;;;;;;;0.80;0.40;;;11.90;64.00;;;;;;4979434;28;20037;-57
2022/01/04 03:44:36;;;;;;;0.30;0.30;;;11.90;64.10;;;;;;4979991;28;20026;-59
2022/01/04 03:47:02;;;;;;;0.45;0.45;;;11.90;64.20;;;;;;4975462;28;20027;-59
2022/01/04 03:49:28;;;;;;;0.57;0.30;;;11.90;64.30;;;;;;4979703;28;20588;-58
2022/01/04 03:51:55;;;;;;;4.53;0.60;;;11.90;64.40;;;;;;4978638;28;20030;-59
2022/01/04 03:54:22;;;;;;;1.08;0.40;;;11.90;64.40;;;;;;4979935;28;20490;-57
2022/01/04 03:56:49;;;;;;;0.98;0.43;;;11.90;64.30;;;;;;4979200;28;20038;-57
2022/01/04 03:59:16;;;;;;;1.45;0.40;;;12.00;64.10;;;;;;4975162;28;20042;-58
2022/01/04 04:01:42;;;;;;;1.30;0.50;;;12.00;63.90;;;;;;4978438;28;20139;-59
2022/01/04 04:04:08;;;;;;;0.47;0.43;;;12.00;63.70;;;;;;4981142;28;20387;-57
2022/01/04 04:06:35;;;;;;;0.85;0.50;;;12.10;63.70;;;;;;4991382;28;20045;-59
2022/01/04 04:09:01;;;;;;;0.98;0.60;;;12.10;63.50;;;;;;4989564;28;20382;-59
2022/01/04 04:11:27;;;;;;;0.95;0.50;;;12.10;63.40;;;;;;4966618;28;20034;-57
2022/01/04 04:13:54;;;;;;;4.95;0.65;;;12.10;63.30;;;;;;4990421;28;20038;-59
2022/01/04 04:16:20;;;;;;;1.02;0.52;;;12.10;63.10;;;;;;4975269;28;20041;-59
2022/01/04 04:18:46;;;;;;;0.50;0.40;;;12.10;62.90;;;;;;4990595;28;20031;-56
2022/01/04 04:21:12;;;;;;;0.40;0.40;;;12.10;62.80;;;;;;4987252;28;20402;-57
2022/01/04 04:23:38;;;;;;;1.27;0.60;;;12.10;62.70;;;;;;4996426;28;20401;-56
2022/01/04 04:26:06;;;;;;;2.45;0.70;;;12.00;62.70;;;;;;4999756;28;20385;-59
2022/01/04 04:28:32;;;;;;;1.38;0.55;;;12.00;62.60;;;;;;4988831;28;20374;-58
2022/01/04 04:30:59;;;;;;;1.02;0.40;;;12.00;62.50;;;;;;4988807;28;20045;-57
2022/01/04 04:33:25;;;;;;;2.00;0.60;;;12.00;62.40;;;;;;4993455;28;20046;-53
2022/01/04 04:35:51;;;;;;;2.22;0.70;;;12.00;62.50;;;;;;4990499;28;20090;-59
2022/01/04 04:38:18;;;;;;;2.38;0.90;;;12.00;62.40;;;;;;4989963;28;20042;-59
2022/01/04 04:40:45;;;;;;;0.95;0.70;;;12.00;62.40;;;;;;4992682;28;20018;-59
2022/01/04 04:43:12;;;;;;;3.45;0.95;;;12.00;62.50;;;;;;4996640;28;20425;-59
2022/01/04 04:45:38;;;;;;;1.13;1.00;;;11.90;62.60;;;;;;4971328;28;20034;-59
2022/01/04 04:48:04;;;;;;;1.67;1.20;;;11.90;62.90;;;;;;4964673;28;20114;-56
2022/01/04 04:50:31;;;;;;;2.88;0.90;;;11.90;63.20;;;;;;4985611;28;20022;-59
2022/01/04 04:52:57;;;;;;;1.08;0.82;;;11.90;63.30;;;;;;4987641;28;20044;-57
2022/01/04 04:55:24;;;;;;;1.35;0.90;;;11.90;63.50;;;;;;4998261;28;20037;-56
2022/01/04 04:57:50;;;;;;;1.48;0.80;;;11.90;63.50;;;;;;4963597;28;20031;-59
2022/01/04 05:00:16;;;;;;;1.75;0.80;;;12.00;63.50;;;;;;4992925;28;20471;-57
2022/01/04 05:02:43;;;;;;;1.58;0.80;;;12.00;63.30;;;;;;4997939;28;20033;-56
2022/01/04 05:05:09;;;;;;;2.13;0.90;;;12.00;63.10;;;;;;4992245;28;20026;-57
2022/01/04 05:07:36;;;;;;;0.82;0.68;;;12.00;62.90;;;;;;4977780;28;20041;-59
2022/01/04 05:10:07;;;;;;;1.02;0.70;;;12.00;62.80;;;;;;4980648;28;20037;-59
2022/01/04 05:12:33;;;;;;;1.48;0.90;;;12.10;62.60;;;;;;4979580;28;20034;-56
2022/01/04 05:14:59;;;;;;;1.00;0.70;;;12.10;62.50;;;;;;4979352;28;20038;-57
2022/01/04 05:17:25;;;;;;;1.05;0.70;;;12.10;62.50;;;;;;4968667;28;20645;-57
2022/01/04 05:19:51;;;;;;;0.70;0.57;;;12.10;62.50;;;;;;4980200;28;21073;-56
2022/01/04 05:22:18;;;;;;;1.17;0.80;;;12.10;62.40;;;;;;4965940;28;20038;-54
2022/01/04 05:24:44;;;;;;;1.40;0.50;;;12.10;62.30;;;;;;4980689;28;20500;-56
2022/01/04 05:27:10;;;;;;;1.08;0.70;;;12.10;62.30;;;;;;4978322;28;20030;-57
2022/01/04 05:29:36;;;;;;;1.75;0.90;;;12.00;62.30;;;;;;4981916;28;20030;-54
2022/01/04 05:32:03;;;;;;;1.55;0.70;;;12.00;62.20;;;;;;4979553;28;20034;-56
2022/01/04 05:34:29;;;;;;;1.05;0.70;;;12.00;62.20;;;;;;4981006;28;20386;-55
2022/01/04 05:36:55;;;;;;;1.65;0.68;;;12.00;62.20;;;;;;4980583;28;20049;-55
2022/01/04 05:39:21;;;;;;;0.75;0.60;;;11.90;62.20;;;;;;4979707;28;20411;-55
2022/01/04 05:41:48;;;;;;;2.33;0.77;;;12.00;62.10;;;;;;4980588;28;20045;-54
2022/01/04 05:44:14;;;;;;;180.15;5.15;;;11.90;61.90;;;;;;4981049;28;20313;-54
2022/01/04 05:46:40;;;;;;;77.68;1.75;;;11.90;61.80;;;;;;4966287;28;20050;-55
2022/01/04 05:49:06;;;;;;;238.88;5.22;;;11.80;61.80;;;;;;4978388;28;20041;-57
2022/01/04 05:51:32;;;;;;;480.70;10.70;;;11.80;62.10;;;;;;4976253;28;20061;-55
2022/01/04 05:53:58;;;;;;;40.03;2.00;;;11.70;62.10;;;;;;4980999;28;20026;-55
2022/01/04 05:56:25;;;;;;;25.63;1.90;;;11.60;62.20;;;;;;4981957;28;20038;-57
2022/01/04 05:58:51;;;;;;;7.40;1.48;;;11.50;62.60;;;;;;4977228;28;20039;-55
2022/01/04 06:01:17;;;;;;;1.55;1.45;;;11.50;63.00;;;;;;4978582;28;20479;-56
2022/01/04 06:03:46;;;;;;;1.80;1.40;;;11.40;63.20;;;;;;4978188;28;20018;-57
2022/01/04 06:06:13;;;;;;;2.88;1.40;;;11.40;63.30;;;;;;4981567;28;20057;-55
2022/01/04 06:08:39;;;;;;;2.15;1.60;;;11.40;63.40;;;;;;4975132;28;20030;-55
2022/01/04 06:11:08;;;;;;;3.35;1.27;;;11.40;63.60;;;;;;4977570;28;20482;-57
2022/01/04 06:16:19;;;;;;;2.90;1.30;;;11.40;63.70;;;;;;4980691;28;20318;-57
2022/01/04 06:18:45;;;;;;;3.08;1.40;;;11.40;63.60;;;;;;4977930;28;20034;-55
2022/01/04 06:21:11;;;;;;;2.78;1.50;;;11.40;63.70;;;;;;4981263;28;20499;-57
2022/01/04 06:23:38;;;;;;;1.90;1.38;;;11.30;63.70;;;;;;4978651;28;20030;-55
2022/01/04 06:26:05;;;;;;;1.83;1.38;;;11.30;63.90;;;;;;4979865;28;20369;-57
2022/01/04 06:28:32;;;;;;;2.53;1.80;;;11.30;64.00;;;;;;4977977;28;20041;-55
2022/01/04 06:30:58;;;;;;;3.85;1.83;;;11.30;64.10;;;;;;4979726;28;20303;-54
2022/01/04 06:33:25;;;;;;;2.85;1.77;;;11.30;64.40;;;;;;4977605;28;20030;-54
2022/01/04 06:35:51;;;;;;;2.58;1.55;;;11.30;64.60;;;;;;4980532;28;20462;-55
2022/01/04 06:38:17;;;;;;;2.40;1.70;;;11.40;64.80;;;;;;4980466;28;20041;-54
2022/01/04 06:40:43;;;;;;;2.85;1.55;;;11.40;64.80;;;;;;4981024;28;20041;-55
2022/01/04 06:43:10;;;;;;;2.58;1.90;;;11.50;64.70;;;;;;4979120;28;20050;-56
2022/01/04 06:45:36;;;;;;;15.50;5.90;;;11.50;64.60;;;;;;4981177;28;20037;-55
2022/01/04 06:48:02;;;;;;;11.13;5.78;;;11.60;64.50;;;;;;4979116;28;20034;-55
2022/01/04 06:50:28;;;;;;;6.32;2.90;;;11.60;64.20;;;;;;4980509;28;20043;-56
2022/01/04 06:52:54;;;;;;;7.28;2.83;;;11.60;64.00;;;;;;4980077;28;20517;-53
2022/01/04 06:55:21;;;;;;;7.90;2.83;;;11.60;63.80;;;;;;4979351;28;20026;-57
2022/01/04 06:57:47;;;;;;;2.42;1.90;;;11.70;63.60;;;;;;4979006;28;20364;-57
2022/01/04 07:00:14;;;;;;;3.15;2.28;;;11.70;63.40;;;;;;4979130;28;20030;-55
2022/01/04 07:02:40;;;;;;;42.50;3.00;;;11.70;63.30;;;;;;4966935;28;20050;-55
2022/01/04 07:05:06;;;;;;;8.30;2.03;;;11.70;63.20;;;;;;4980844;28;20483;-55
2022/01/04 07:07:33;;;;;;;9.73;2.38;;;11.70;63.10;;;;;;4965137;28;20038;-52
2022/01/04 07:09:59;;;;;;;6.57;2.70;;;11.70;63.40;;;;;;4980333;28;20053;-56
2022/01/04 07:12:25;;;;;;;18.98;3.08;;;11.70;63.10;;;;;;4979673;28;20107;-55
2022/01/04 07:14:51;;;;;;;12.07;3.00;;;11.70;63.70;;;;;;4980109;28;20027;-57
2022/01/04 07:17:18;;;;;;;14.30;3.20;;;11.70;63.10;;;;;;4973469;28;20043;-58
2022/01/04 07:19:46;;;;;;;9.93;3.03;;;11.70;63.10;;;;;;4969930;28;20418;-54
2022/01/04 07:22:12;;;;;;;10.68;2.70;;;11.60;63.10;;;;;;4980137;28;20527;-57
2022/01/04 07:24:38;;;;;;;3.20;2.70;;;11.60;63.00;;;;;;4976311;28;20026;-55
2022/01/04 07:27:05;;;;;;;66.13;3.95;;;11.60;63.10;;;;;;4979266;28;20026;-56
2022/01/04 07:29:31;;;;;;;5.18;2.78;;;11.60;63.10;;;;;;4976898;28;20030;-57
2022/01/04 07:31:57;;;;;;;3.70;2.90;;;11.60;63.00;;;;;;4963686;28;20046;-56
2022/01/04 07:34:23;;;;;;;4.22;2.90;;;11.60;63.10;;;;;;4979103;28;20038;-54
2022/01/04 07:36:50;;;;;;;5.30;2.60;;;11.50;63.10;;;;;;4981784;28;20506;-56
2022/01/04 07:39:16;;;;;;;3.00;2.28;;;11.50;63.10;;;;;;4980528;28;20033;-57
2022/01/04 07:41:42;;;;;;;5.65;2.30;;;11.50;63.10;;;;;;4984862;28;20563;-57
2022/01/04 07:44:08;;;;;;;4.22;2.65;;;11.50;63.10;;;;;;4979455;28;20592;-54
2022/01/04 07:46:34;;;;;;;4.22;2.63;;;11.50;63.20;;;;;;4982268;28;20022;-57
2022/01/04 07:49:01;;;;;;;4.00;2.60;;;11.50;64.00;;;;;;4980847;28;20041;-56
2022/01/04 07:51:28;;;;;;;2.97;2.33;;;11.50;63.30;;;;;;4980840;28;20050;-56
2022/01/04 07:53:54;;;;;;;3.20;2.38;;;11.50;63.50;;;;;;4984376;28;20041;-51
2022/01/04 07:56:20;;;;;;;3.50;2.30;;;11.40;63.40;;;;;;4984701;28;20053;-56
2022/01/04 07:58:47;;;;;;;2.75;2.00;;;11.40;63.50;;;;;;4969432;28;20402;-55
2022/01/04 08:01:13;;;;;;;5.15;2.42;;;11.40;63.70;;;;;;4981121;28;20038;-58
2022/01/04 08:03:39;;;;;;;3.03;2.20;;;11.40;63.70;;;;;;4982115;28;20030;-57
2022/01/04 08:06:05;;;;;;;4.57;2.13;;;11.40;63.80;;;;;;4986305;28;20042;-54
2022/01/04 08:08:32;;;;;;;3.72;2.60;;;11.40;63.80;;;;;;4971178;28;20045;-57
2022/01/04 08:10:58;;;;;;;4.60;2.40;;;11.40;63.90;;;;;;4985006;28;20026;-55
2022/01/04 08:13:29;;;;;;;2.78;2.20;;;11.40;63.90;;;;;;4987333;28;20398;-57
2022/01/04 08:15:55;;;;;;;3.30;2.30;;;11.30;64.00;;;;;;4993873;28;20477;-54
2022/01/04 08:18:22;;;;;;;3.50;2.55;;;11.40;64.00;;;;;;4986158;28;20042;-57
2022/01/04 08:20:50;;;;;;;3.08;2.70;;;11.40;64.00;;;;;;4989236;28;20045;-55
2022/01/04 08:23:16;;;;;;;2.85;2.28;;;11.40;64.00;;;;;;4994377;28;20037;-58
2022/01/04 08:25:42;;;;;;;2.25;1.50;;;11.40;64.00;;;;;;4996756;28;20037;-58
2022/01/04 08:28:09;;;;;;;2.13;1.33;;;11.40;64.00;;;;;;4993355;28;20025;-57
2022/01/04 08:30:36;;;;;;;1.90;1.50;;;11.30;63.90;;;;;;4995485;28;20026;-57
2022/01/04 08:33:02;;;;;;;1.77;1.55;;;11.30;63.90;;;;;;4991718;28;20493;-55
2022/01/04 08:35:28;;;;;;;1.50;1.40;;;11.40;63.90;;;;;;4996025;28;20489;-55
2022/01/04 08:37:54;;;;;;;1.98;1.65;;;11.30;63.70;;;;;;4986436;28;20452;-57
2022/01/04 08:40:20;;;;;;;2.80;1.75;;;11.30;63.60;;;;;;4997036;28;20030;-58
2022/01/04 08:42:47;;;;;;;4.50;2.28;;;11.30;63.80;;;;;;4993968;28;20398;-59
2022/01/04 08:45:13;;;;;;;3.42;1.60;;;11.30;64.00;;;;;;4981354;28;20045;-57
2022/01/04 08:47:40;;;;;;;2.20;1.73;;;11.30;64.30;;;;;;4987929;28;20898;-57
2022/01/04 08:50:08;;;;;;;2.30;1.90;;;11.40;64.60;;;;;;4967196;28;20475;-58
2022/01/04 08:52:34;;;;;;;3.22;1.65;;;11.40;64.80;;;;;;4986884;28;20033;-57
2022/01/04 08:55:01;;;;;;;2.85;2.00;;;11.40;64.80;;;;;;4992993;28;20026;-57
2022/01/04 08:57:27;;;;;;;3.03;2.00;;;11.40;64.70;;;;;;4985108;28;20026;-59
2022/01/04 08:59:54;;;;;;;2.40;1.98;;;11.50;64.60;;;;;;4986997;28;20497;-57
2022/01/04 09:02:22;;;;;;;2.78;2.15;;;11.50;64.50;;;;;;4979135;28;20030;-57
2022/01/04 09:04:48;;;;;;;3.78;2.00;;;11.50;64.30;;;;;;4989522;28;20127;-57
2022/01/04 09:07:15;;;;;;;6.43;2.45;;;11.60;64.30;;;;;;4986079;28;20050;-58
2022/01/04 09:09:41;;;;;;;3.08;2.47;;;11.60;64.10;;;;;;4986866;28;20037;-57
2022/01/04 09:12:08;;;;;;;3.88;2.25;;;11.70;64.20;;;;;;4987932;28;20035;-59
2022/01/04 09:20:03;;;;;;;5.53;2.08;;;11.80;64.00;;;;;;4997537;28;19914;-58
2022/01/04 09:22:30;;;;;;;4.05;2.20;;;11.80;63.60;;;;;;4985816;28;20026;-57
2022/01/04 09:24:56;;;;;;;2.45;1.95;;;11.70;63.50;;;;;;4982546;28;20034;-57
2022/01/04 09:27:22;;;;;;;2.95;2.13;;;11.70;63.50;;;;;;4983713;28;20034;-57
2022/01/04 09:29:49;;;;;;;2.72;1.63;;;11.80;63.70;;;;;;4994294;28;20077;-57
2022/01/04 09:32:17;;;;;;;2.17;1.50;;;11.80;63.60;;;;;;4993594;28;20445;-56
2022/01/04 09:34:44;;;;;;;2.63;1.45;;;11.80;63.60;;;;;;4999527;28;20513;-57
2022/01/04 09:37:11;;;;;;;2.60;1.25;;;11.80;63.50;;;;;;4995015;28;20029;-58
2022/01/04 09:39:37;;;;;;;3.95;1.42;;;11.70;63.30;;;;;;4993491;28;20030;-59
2022/01/04 09:42:04;;;;;;;2.55;1.40;;;11.70;63.30;;;;;;4996327;28;20486;-59
2022/01/04 09:44:30;;;;;;;2.88;1.38;;;11.70;63.20;;;;;;4995741;28;20090;-59
2022/01/04 09:46:58;;;;;;;2.95;1.80;;;11.70;63.30;;;;;;4980739;28;20037;-59
2022/01/04 09:49:24;;;;;;;4.03;1.85;;;11.70;63.10;;;;;;4985705;28;20049;-60
2022/01/04 09:51:51;;;;;;;2.55;1.50;;;11.70;63.00;;;;;;4995845;28;20030;-59
2022/01/04 09:54:20;;;;;;;2.05;1.40;;;11.70;63.10;;;;;;4982875;28;20038;-58
2022/01/04 09:56:48;;;;;;;2.60;1.05;;;11.70;63.10;;;;;;4989382;28;20040;-57
2022/01/04 09:59:14;;;;;;;3.35;1.35;;;11.60;63.10;;;;;;4988854;28;20048;-57
2022/01/04 10:01:43;;;;;;;1.67;1.30;;;11.70;63.20;;;;;;4985068;28;20030;-59
2022/01/04 10:04:10;;;;;;;7.18;1.60;;;11.70;63.20;;;;;;4982684;28;20470;-57
2022/01/04 10:06:41;;;;;;;2.60;0.90;;;11.60;63.20;;;;;;4982031;28;20402;-59
2022/01/04 10:09:11;;;;;;;2.15;0.60;;;11.70;63.20;;;;;;4979863;28;20054;-58
2022/01/04 10:11:50;;;;;;;2.75;0.75;;;11.60;63.10;;;;;;4980225;28;20475;-59
2022/01/04 10:14:34;;;;;;;3.85;0.50;;;11.60;62.80;;;;;;4978498;28;20038;-59
2022/01/04 10:17:06;;;;;;;1.02;0.70;;;11.60;62.70;;;;;;4977145;28;20030;-57
2022/01/04 10:19:37;;;;;;;1.52;0.80;;;11.60;62.50;;;;;;4981106;28;20378;-57
2022/01/04 10:22:18;;;;;;;1.77;0.60;;;11.60;62.40;;;;;;4980955;28;20033;-58
2022/01/04 10:24:47;;;;;;;4.18;0.93;;;11.60;62.50;;;;;;4980626;28;20030;-59
2022/01/04 10:27:31;;;;;;;1.58;0.80;;;11.60;62.50;;;;;;4977963;28;20042;-57
2022/01/04 10:30:16;;;;;;;;;;;11.50;62.50;;;;;;4982120;28;20395;-56
2022/01/04 10:32:55;;;;;;;0.73;0.50;;;11.60;62.80;;;;;;4978122;28;19917;-59
2022/01/04 10:35:25;;;;;;;1.85;0.80;;;11.60;62.60;;;;;;4979545;28;20289;-58
2022/01/04 10:37:53;;;;;;;2.58;0.82;;;11.60;62.90;;;;;;4976822;28;20034;-58
2022/01/04 10:40:20;;;;;;;1.77;1.00;;;11.60;62.90;;;;;;4978624;28;20373;-57
2022/01/04 10:42:46;;;;;;;1.60;0.73;;;11.60;63.00;;;;;;4975857;28;20034;-59
2022/01/04 10:45:26;;;;;;;1.33;0.77;;;11.60;62.90;;;;;;4973559;28;20034;-57
2022/01/04 10:47:53;;;;;;;2.67;1.40;;;11.60;62.60;;;;;;4978827;28;20519;-54
2022/01/04 10:50:35;;;;;;;2.38;1.50;;;11.60;62.40;;;;;;4977426;28;20027;-57
2022/01/04 10:53:03;;;;;;;3.75;1.50;;;11.60;62.20;;;;;;4968780;28;20042;-59
2022/01/04 10:55:34;;;;;;;2.90;1.27;;;11.60;62.20;;;;;;4980370;28;20030;-57
2022/01/04 10:58:03;;;;;;;3.05;1.20;;;11.60;62.20;;;;;;4973932;28;20518;-57
2022/01/04 11:00:30;;;;;;;3.35;1.30;;;11.60;62.10;;;;;;4966721;28;20030;-59
2022/01/04 11:02:58;;;;;;;2.50;1.17;;;11.60;62.00;;;;;;4964927;28;20038;-57
2022/01/04 11:05:25;;;;;;;2.22;0.93;;;11.60;62.10;;;;;;4980604;28;20417;-55
2022/01/04 11:08:07;;;;;;;0.82;0.68;;;11.60;62.30;;;;;;4995620;28;20325;-58
2022/01/04 11:10:35;;;;;;;1.45;0.82;;;11.60;62.50;;;;;;4990961;28;20398;-57
2022/01/04 11:13:03;;;;;;;1.52;1.10;;;11.60;62.50;;;;;;4972859;28;20384;-60
2022/01/04 11:15:31;;;;;;;2.25;0.82;;;11.60;62.60;;;;;;4979133;28;20028;-56
2022/01/04 11:17:57;;;;;;;3.30;1.17;;;11.50;62.60;;;;;;4985302;28;20495;-59
2022/01/04 11:20:24;;;;;;;1.52;1.05;;;11.50;62.70;;;;;;4987530;28;20029;-58
2022/01/04 11:22:51;;;;;;;4.82;1.50;;;11.50;62.80;;;;;;4979123;28;20033;-59
2022/01/04 11:25:22;;;;;;;2.65;1.10;;;11.50;62.80;;;;;;4978201;28;20525;-58
2022/01/04 11:27:49;;;;;;;2.83;1.08;;;11.50;62.90;;;;;;4975079;28;20386;-56
2022/01/04 11:30:24;;;;;;;3.33;1.25;;;11.50;63.10;;;;;;4961532;28;20045;-56
2022/01/04 11:32:55;;;;;;;;;;;11.50;63.10;;;;;;4974398;28;20031;-56
2022/01/04 11:35:24;;;;;;;4.03;1.40;;;11.60;63.10;;;;;;4980147;28;20485;-55
2022/01/04 11:37:52;;;;;;;2.05;1.30;;;11.60;62.60;;;;;;4976781;28;20391;-57
2022/01/04 11:40:26;;;;;;;3.30;1.48;;;11.60;62.60;;;;;;4963277;28;20030;-58
2022/01/04 11:42:54;;;;;;;3.60;1.50;;;11.50;62.60;;;;;;4974384;28;21472;-57
2022/01/04 11:45:41;;;;;;;3.45;1.60;;;11.50;62.60;;;;;;4976248;28;20495;-56
2022/01/04 11:48:31;;;;;;;2.67;1.15;;;11.50;62.80;;;;;;4983200;28;20030;-58
2022/01/04 11:51:03;;;;;;;3.08;1.30;;;11.50;63.50;;;;;;4993175;28;20390;-57
2022/01/04 11:53:31;;;;;;;4.18;1.50;;;11.50;62.80;;;;;;4991146;28;20042;-59
2022/01/04 11:56:02;;;;;;;1.92;1.20;;;11.40;62.70;;;;;;4989998;28;20574;-58
2022/01/04 11:58:42;;;;;;;2.78;1.45;;;11.40;62.80;;;;;;4987572;28;20041;-59
2022/01/04 12:01:11;;;;;;;3.65;1.27;;;11.40;63.00;;;;;;4988117;28;20378;-57
2022/01/04 12:03:42;;;;;;;2.63;1.33;;;11.40;63.00;;;;;;4999590;28;20030;-59
2022/01/04 12:06:11;;;;;;;1.70;1.08;;;11.40;63.00;;;;;;4987157;28;20068;-56
2022/01/04 12:08:54;;;;;;;2.13;1.38;;;11.40;63.00;;;;;;4974412;28;20397;-58
2022/01/04 12:11:26;;;;;;;2.83;1.30;;;11.40;63.20;;;;;;4967164;28;20039;-57
2022/01/04 12:13:57;;;;;;;3.42;1.10;;;11.30;63.80;;;;;;4981479;28;20038;-55
2022/01/04 12:16:43;;;;;;;3.40;1.48;;;11.30;63.30;;;;;;4986871;28;20026;-58
2022/01/04 12:19:15;;;;;;;4.50;1.27;;;11.30;63.40;;;;;;4973506;28;20049;-56
2022/01/04 12:21:47;;;;;;;3.75;1.80;;;11.30;63.50;;;;;;4984413;28;20114;-57
2022/01/04 12:24:21;;;;;;;5.43;2.00;;;11.30;63.60;;;;;;4989275;28;20042;-57
2022/01/04 12:26:47;;;;;;;2.95;1.23;;;11.30;63.70;;;;;;4976814;28;20933;-59
2022/01/04 12:29:18;;;;;;;3.90;1.50;;;11.30;63.70;;;;;;4988342;28;20037;-59
2022/01/04 12:31:52;;;;;;;5.05;1.80;;;11.30;63.90;;;;;;4989738;28;20485;-59
2022/01/04 12:34:35;;;;;;;2.85;1.08;;;11.40;64.00;;;;;;5000314;28;20044;-59
2022/01/04 12:37:04;;;;;;;2.25;1.25;;;11.40;64.00;;;;;;4999911;28;20391;-59
2022/01/04 12:39:41;;;;;;;5.60;0.88;;;11.50;63.90;;;;;;4985008;28;20501;-57
2022/01/04 12:42:10;;;;;;;2.35;0.70;;;11.50;63.60;;;;;;4995054;28;20029;-58
2022/01/04 12:44:37;;;;;;;2.47;0.80;;;11.60;63.60;;;;;;4993047;28;20042;-58
2022/01/04 12:47:05;;;;;;;4.10;1.15;;;11.60;63.50;;;;;;4980035;28;20050;-59
2022/01/04 12:49:33;;;;;;;3.13;1.23;;;11.60;64.10;;;;;;4982671;28;20395;-59
2022/01/04 12:52:03;;;;;;;18.25;6.47;;;11.60;63.40;;;;;;4984777;28;20038;-55
2022/01/04 12:54:34;;;;;;;5.30;2.45;;;11.60;63.10;;;;;;4997312;28;20036;-56
2022/01/04 12:57:12;;;;;;;3.60;1.17;;;11.60;62.90;;;;;;4981902;28;20585;-57
2022/01/04 12:59:42;;;;;;;2.97;1.30;;;11.60;62.70;;;;;;4982535;28;20025;-58
2022/01/04 13:02:13;;;;;;;7.35;3.20;;;11.60;62.60;;;;;;4996072;28;20101;-59